sensor_id;sensor_type;location;lat;lon;timestamp;P1;durP1;ratioP1;P2;durP2;ratioP2
13753;SDS011;6948;51.216;6.778;2022-11-04T00:01:41;2.77;;;1.20;;
13753;SDS011;6948;51.216;6.778;2022-11-04T00:04:08;1.37;;;1.20;;
13753;SDS011;6948;51.216;6.778;2022-11-04T00:06:34;1.20;;;1.10;;
13753;SDS011;6948;51.216;6.778;2022-11-04T00:09:00;1.57;;;1.17;;
13753;SDS011;6948;51.216;6.778;2022-11-04T00:11:27;1.27;;;1.17;;
13753;SDS011;6948;51.216;6.778;2022-11-04T00:14:13;2.00;;;1.13;;
13753;SDS011;6948;51.216;6.778;2022-11-04T00:16:39;3.30;;;1.20;;
13753;SDS011;6948;51.216;6.778;2022-11-04T00:19:25;1.30;;;1.00;;
13753;SDS011;6948;51.216;6.778;2022-11-04T00:21:51;2.17;;;1.10;;
13753;SDS011;6948;51.216;6.778;2022-11-04T00:24:37;1.10;;;1.00;;
13753;SDS011;6948;51.216;6.778;2022-11-04T00:27:20;2.33;;;1.33;;
13753;SDS011;6948;51.216;6.778;2022-11-04T00:30:08;1.70;;;1.33;;
13753;SDS011;6948;51.216;6.778;2022-11-04T00:32:35;1.63;;;1.30;;
13753;SDS011;6948;51.216;6.778;2022-11-04T00:35:21;1.53;;;1.20;;
13753;SDS011;6948;51.216;6.778;2022-11-04T00:37:47;1.80;;;1.43;;
13753;SDS011;6948;51.216;6.778;2022-11-04T00:40:14;1.83;;;1.40;;
13753;SDS011;6948;51.216;6.778;2022-11-04T00:42:42;2.40;;;1.43;;
13753;SDS011;6948;51.216;6.778;2022-11-04T00:45:08;2.30;;;1.40;;
13753;SDS011;6948;51.216;6.778;2022-11-04T00:47:34;2.70;;;1.40;;
13753;SDS011;6948;51.216;6.778;2022-11-04T00:50:00;1.67;;;1.27;;
13753;SDS011;6948;51.216;6.778;2022-11-04T00:52:26;2.17;;;1.53;;
13753;SDS011;6948;51.216;6.778;2022-11-04T00:54:52;2.33;;;1.87;;
13753;SDS011;6948;51.216;6.778;2022-11-04T00:57:18;2.27;;;1.90;;
13753;SDS011;6948;51.216;6.778;2022-11-04T00:59:44;2.43;;;1.60;;
13753;SDS011;6948;51.216;6.778;2022-11-04T01:02:10;4.20;;;1.93;;
13753;SDS011;6948;51.216;6.778;2022-11-04T01:04:37;3.13;;;1.97;;
13753;SDS011;6948;51.216;6.778;2022-11-04T01:07:03;2.43;;;1.83;;
13753;SDS011;6948;51.216;6.778;2022-11-04T01:09:29;4.33;;;2.30;;
13753;SDS011;6948;51.216;6.778;2022-11-04T01:11:56;2.20;;;2.00;;
13753;SDS011;6948;51.216;6.778;2022-11-04T01:14:22;3.30;;;2.50;;
13753;SDS011;6948;51.216;6.778;2022-11-04T01:16:48;3.10;;;2.00;;
13753;SDS011;6948;51.216;6.778;2022-11-04T01:19:14;4.63;;;2.27;;
13753;SDS011;6948;51.216;6.778;2022-11-04T01:21:40;6.80;;;2.37;;
13753;SDS011;6948;51.216;6.778;2022-11-04T01:24:06;2.50;;;2.10;;
13753;SDS011;6948;51.216;6.778;2022-11-04T01:26:33;3.00;;;2.17;;
13753;SDS011;6948;51.216;6.778;2022-11-04T01:28:59;3.67;;;2.30;;
13753;SDS011;6948;51.216;6.778;2022-11-04T01:31:26;2.80;;;1.90;;
13753;SDS011;6948;51.216;6.778;2022-11-04T01:33:52;4.70;;;2.20;;
13753;SDS011;6948;51.216;6.778;2022-11-04T01:36:19;4.50;;;2.50;;
13753;SDS011;6948;51.216;6.778;2022-11-04T01:38:45;5.67;;;2.20;;
13753;SDS011;6948;51.216;6.778;2022-11-04T01:41:20;4.00;;;2.20;;
13753;SDS011;6948;51.216;6.778;2022-11-04T01:43:48;3.70;;;2.10;;
13753;SDS011;6948;51.216;6.778;2022-11-04T01:46:19;4.93;;;2.17;;
13753;SDS011;6948;51.216;6.778;2022-11-04T01:48:47;3.53;;;2.20;;
13753;SDS011;6948;51.216;6.778;2022-11-04T01:51:13;2.97;;;2.00;;
13753;SDS011;6948;51.216;6.778;2022-11-04T01:53:40;4.90;;;1.80;;
13753;SDS011;6948;51.216;6.778;2022-11-04T01:56:10;4.33;;;2.20;;
13753;SDS011;6948;51.216;6.778;2022-11-04T01:58:40;4.40;;;2.20;;
13753;SDS011;6948;51.216;6.778;2022-11-04T02:01:07;5.00;;;2.10;;
13753;SDS011;6948;51.216;6.778;2022-11-04T02:03:40;4.67;;;1.83;;
13753;SDS011;6948;51.216;6.778;2022-11-04T02:06:10;3.53;;;2.10;;
13753;SDS011;6948;51.216;6.778;2022-11-04T02:08:36;4.83;;;2.00;;
13753;SDS011;6948;51.216;6.778;2022-11-04T02:11:03;5.40;;;2.10;;
13753;SDS011;6948;51.216;6.778;2022-11-04T02:13:30;4.00;;;2.10;;
13753;SDS011;6948;51.216;6.778;2022-11-04T02:18:53;3.97;;;1.90;;
13753;SDS011;6948;51.216;6.778;2022-11-04T02:30:19;5.40;;;2.20;;
13753;SDS011;6948;51.216;6.778;2022-11-04T02:35:02;5.13;;;1.70;;
13753;SDS011;6948;51.216;6.778;2022-11-04T02:37:32;6.00;;;1.90;;
13753;SDS011;6948;51.216;6.778;2022-11-04T02:40:05;6.13;;;1.90;;
13753;SDS011;6948;51.216;6.778;2022-11-04T02:45:12;5.50;;;1.90;;
13753;SDS011;6948;51.216;6.778;2022-11-04T02:47:41;3.87;;;1.57;;
13753;SDS011;6948;51.216;6.778;2022-11-04T02:50:11;5.20;;;1.90;;
13753;SDS011;6948;51.216;6.778;2022-11-04T02:52:44;6.03;;;1.90;;
13753;SDS011;6948;51.216;6.778;2022-11-04T02:55:16;4.27;;;1.73;;
13753;SDS011;6948;51.216;6.778;2022-11-04T02:57:43;6.70;;;2.10;;
13753;SDS011;6948;51.216;6.778;2022-11-04T03:00:11;4.70;;;2.30;;
13753;SDS011;6948;51.216;6.778;2022-11-04T03:02:40;5.73;;;2.07;;
13753;SDS011;6948;51.216;6.778;2022-11-04T03:05:08;4.20;;;2.20;;
13753;SDS011;6948;51.216;6.778;2022-11-04T03:07:37;4.80;;;1.93;;
13753;SDS011;6948;51.216;6.778;2022-11-04T03:10:07;5.13;;;2.40;;
13753;SDS011;6948;51.216;6.778;2022-11-04T03:12:37;4.73;;;2.20;;
13753;SDS011;6948;51.216;6.778;2022-11-04T03:15:06;5.03;;;2.30;;
13753;SDS011;6948;51.216;6.778;2022-11-04T03:17:35;5.20;;;2.33;;
13753;SDS011;6948;51.216;6.778;2022-11-04T03:20:04;5.50;;;2.10;;
13753;SDS011;6948;51.216;6.778;2022-11-04T03:22:33;7.80;;;2.03;;
13753;SDS011;6948;51.216;6.778;2022-11-04T03:25:01;7.47;;;2.30;;
13753;SDS011;6948;51.216;6.778;2022-11-04T03:30:14;5.57;;;2.20;;
13753;SDS011;6948;51.216;6.778;2022-11-04T03:32:43;4.00;;;2.00;;
13753;SDS011;6948;51.216;6.778;2022-11-04T03:35:12;9.40;;;2.20;;
13753;SDS011;6948;51.216;6.778;2022-11-04T03:37:39;7.73;;;2.40;;
13753;SDS011;6948;51.216;6.778;2022-11-04T03:40:05;6.77;;;2.20;;
13753;SDS011;6948;51.216;6.778;2022-11-04T03:42:31;9.00;;;2.47;;
13753;SDS011;6948;51.216;6.778;2022-11-04T03:44:59;8.10;;;2.23;;
13753;SDS011;6948;51.216;6.778;2022-11-04T03:47:26;5.27;;;2.00;;
13753;SDS011;6948;51.216;6.778;2022-11-04T03:49:55;7.70;;;2.63;;
13753;SDS011;6948;51.216;6.778;2022-11-04T03:52:22;5.67;;;2.00;;
13753;SDS011;6948;51.216;6.778;2022-11-04T03:54:48;6.97;;;2.50;;
13753;SDS011;6948;51.216;6.778;2022-11-04T04:00:05;8.37;;;2.07;;
13753;SDS011;6948;51.216;6.778;2022-11-04T04:13:30;6.17;;;2.20;;
13753;SDS011;6948;51.216;6.778;2022-11-04T04:16:09;5.27;;;2.30;;
13753;SDS011;6948;51.216;6.778;2022-11-04T04:18:41;9.77;;;2.70;;
13753;SDS011;6948;51.216;6.778;2022-11-04T04:21:10;12.53;;;3.00;;
13753;SDS011;6948;51.216;6.778;2022-11-04T04:23:36;8.33;;;2.80;;
13753;SDS011;6948;51.216;6.778;2022-11-04T04:26:24;8.03;;;2.80;;
13753;SDS011;6948;51.216;6.778;2022-11-04T04:29:10;9.70;;;2.53;;
13753;SDS011;6948;51.216;6.778;2022-11-04T04:31:37;7.73;;;2.43;;
13753;SDS011;6948;51.216;6.778;2022-11-04T04:34:26;6.37;;;2.70;;
13753;SDS011;6948;51.216;6.778;2022-11-04T04:36:53;9.70;;;2.70;;
13753;SDS011;6948;51.216;6.778;2022-11-04T04:39:21;9.23;;;3.00;;
13753;SDS011;6948;51.216;6.778;2022-11-04T04:42:07;8.13;;;2.50;;
13753;SDS011;6948;51.216;6.778;2022-11-04T04:44:54;8.63;;;2.67;;
13753;SDS011;6948;51.216;6.778;2022-11-04T04:47:30;8.73;;;3.00;;
13753;SDS011;6948;51.216;6.778;2022-11-04T04:49:58;7.63;;;2.60;;
13753;SDS011;6948;51.216;6.778;2022-11-04T04:52:26;8.10;;;2.83;;
13753;SDS011;6948;51.216;6.778;2022-11-04T04:54:53;6.87;;;2.43;;
13753;SDS011;6948;51.216;6.778;2022-11-04T04:57:19;8.93;;;2.60;;
13753;SDS011;6948;51.216;6.778;2022-11-04T04:59:45;8.57;;;2.60;;
13753;SDS011;6948;51.216;6.778;2022-11-04T05:02:11;11.40;;;2.53;;
13753;SDS011;6948;51.216;6.778;2022-11-04T05:04:37;6.60;;;2.40;;
13753;SDS011;6948;51.216;6.778;2022-11-04T05:07:04;6.47;;;2.20;;
13753;SDS011;6948;51.216;6.778;2022-11-04T05:09:32;8.57;;;2.20;;
13753;SDS011;6948;51.216;6.778;2022-11-04T05:11:58;10.50;;;2.43;;
13753;SDS011;6948;51.216;6.778;2022-11-04T05:14:24;10.13;;;2.30;;
13753;SDS011;6948;51.216;6.778;2022-11-04T05:16:50;6.90;;;2.30;;
13753;SDS011;6948;51.216;6.778;2022-11-04T05:19:16;8.77;;;2.10;;
13753;SDS011;6948;51.216;6.778;2022-11-04T05:21:42;6.10;;;2.00;;
13753;SDS011;6948;51.216;6.778;2022-11-04T05:24:08;9.03;;;2.23;;
13753;SDS011;6948;51.216;6.778;2022-11-04T05:26:35;6.93;;;2.07;;
13753;SDS011;6948;51.216;6.778;2022-11-04T05:29:01;8.83;;;2.00;;
13753;SDS011;6948;51.216;6.778;2022-11-04T05:31:27;7.43;;;2.27;;
13753;SDS011;6948;51.216;6.778;2022-11-04T05:33:54;8.37;;;2.43;;
13753;SDS011;6948;51.216;6.778;2022-11-04T05:36:21;9.13;;;2.27;;
13753;SDS011;6948;51.216;6.778;2022-11-04T05:38:51;6.53;;;2.13;;
13753;SDS011;6948;51.216;6.778;2022-11-04T05:41:17;8.23;;;2.37;;
13753;SDS011;6948;51.216;6.778;2022-11-04T05:43:52;4.10;;;2.03;;
13753;SDS011;6948;51.216;6.778;2022-11-04T05:46:19;7.80;;;2.20;;
13753;SDS011;6948;51.216;6.778;2022-11-04T05:48:45;8.50;;;2.70;;
13753;SDS011;6948;51.216;6.778;2022-11-04T05:51:12;8.87;;;2.40;;
13753;SDS011;6948;51.216;6.778;2022-11-04T05:53:38;6.20;;;2.30;;
13753;SDS011;6948;51.216;6.778;2022-11-04T05:56:05;6.67;;;2.40;;
13753;SDS011;6948;51.216;6.778;2022-11-04T05:58:31;6.83;;;2.03;;
13753;SDS011;6948;51.216;6.778;2022-11-04T06:01:22;7.93;;;2.37;;
13753;SDS011;6948;51.216;6.778;2022-11-04T06:03:43;8.63;;;2.60;;
13753;SDS011;6948;51.216;6.778;2022-11-04T06:06:09;8.43;;;2.90;;
13753;SDS011;6948;51.216;6.778;2022-11-04T06:08:35;8.30;;;2.73;;
13753;SDS011;6948;51.216;6.778;2022-11-04T06:11:01;7.40;;;2.87;;
13753;SDS011;6948;51.216;6.778;2022-11-04T06:13:29;9.27;;;2.60;;
13753;SDS011;6948;51.216;6.778;2022-11-04T06:15:55;7.60;;;2.60;;
13753;SDS011;6948;51.216;6.778;2022-11-04T06:18:21;8.10;;;2.63;;
13753;SDS011;6948;51.216;6.778;2022-11-04T06:20:47;9.10;;;2.23;;
13753;SDS011;6948;51.216;6.778;2022-11-04T06:23:13;7.47;;;2.20;;
13753;SDS011;6948;51.216;6.778;2022-11-04T06:25:39;5.47;;;2.20;;
13753;SDS011;6948;51.216;6.778;2022-11-04T06:28:05;8.67;;;2.70;;
13753;SDS011;6948;51.216;6.778;2022-11-04T06:30:31;10.13;;;2.90;;
13753;SDS011;6948;51.216;6.778;2022-11-04T06:32:57;8.57;;;2.83;;
13753;SDS011;6948;51.216;6.778;2022-11-04T06:35:23;7.37;;;2.37;;
13753;SDS011;6948;51.216;6.778;2022-11-04T06:37:50;9.70;;;3.13;;
13753;SDS011;6948;51.216;6.778;2022-11-04T06:40:16;9.33;;;2.87;;
13753;SDS011;6948;51.216;6.778;2022-11-04T06:42:42;7.90;;;2.57;;
13753;SDS011;6948;51.216;6.778;2022-11-04T06:45:09;9.60;;;2.97;;
13753;SDS011;6948;51.216;6.778;2022-11-04T06:47:35;7.17;;;2.90;;
13753;SDS011;6948;51.216;6.778;2022-11-04T06:50:02;6.10;;;2.70;;
13753;SDS011;6948;51.216;6.778;2022-11-04T06:52:28;6.67;;;2.63;;
13753;SDS011;6948;51.216;6.778;2022-11-04T06:54:54;8.77;;;2.77;;
13753;SDS011;6948;51.216;6.778;2022-11-04T06:57:20;7.53;;;2.80;;
13753;SDS011;6948;51.216;6.778;2022-11-04T06:59:46;7.60;;;2.73;;
13753;SDS011;6948;51.216;6.778;2022-11-04T07:02:12;6.47;;;2.63;;
13753;SDS011;6948;51.216;6.778;2022-11-04T07:04:38;10.13;;;3.10;;
13753;SDS011;6948;51.216;6.778;2022-11-04T07:07:04;13.93;;;3.90;;
13753;SDS011;6948;51.216;6.778;2022-11-04T07:09:29;11.23;;;3.20;;
13753;SDS011;6948;51.216;6.778;2022-11-04T07:11:55;11.50;;;3.30;;
13753;SDS011;6948;51.216;6.778;2022-11-04T07:14:22;9.97;;;3.30;;
13753;SDS011;6948;51.216;6.778;2022-11-04T07:16:48;10.83;;;3.10;;
13753;SDS011;6948;51.216;6.778;2022-11-04T07:19:15;10.40;;;3.47;;
13753;SDS011;6948;51.216;6.778;2022-11-04T07:21:41;11.70;;;3.33;;
13753;SDS011;6948;51.216;6.778;2022-11-04T07:24:07;12.30;;;3.57;;
13753;SDS011;6948;51.216;6.778;2022-11-04T07:26:33;9.17;;;3.47;;
13753;SDS011;6948;51.216;6.778;2022-11-04T07:28:59;8.43;;;3.37;;
13753;SDS011;6948;51.216;6.778;2022-11-04T07:31:26;11.27;;;3.50;;
13753;SDS011;6948;51.216;6.778;2022-11-04T07:33:52;10.30;;;3.93;;
13753;SDS011;6948;51.216;6.778;2022-11-04T07:36:18;10.87;;;3.63;;
13753;SDS011;6948;51.216;6.778;2022-11-04T07:38:44;9.17;;;3.70;;
13753;SDS011;6948;51.216;6.778;2022-11-04T07:41:11;7.40;;;3.63;;
13753;SDS011;6948;51.216;6.778;2022-11-04T07:43:37;8.63;;;3.50;;
13753;SDS011;6948;51.216;6.778;2022-11-04T07:46:04;7.60;;;3.57;;
13753;SDS011;6948;51.216;6.778;2022-11-04T07:48:30;6.93;;;3.50;;
13753;SDS011;6948;51.216;6.778;2022-11-04T07:50:57;11.60;;;3.70;;
13753;SDS011;6948;51.216;6.778;2022-11-04T07:53:24;7.27;;;3.03;;
13753;SDS011;6948;51.216;6.778;2022-11-04T07:55:50;9.43;;;3.87;;
13753;SDS011;6948;51.216;6.778;2022-11-04T07:58:17;11.33;;;3.60;;
13753;SDS011;6948;51.216;6.778;2022-11-04T08:00:43;6.90;;;3.40;;
13753;SDS011;6948;51.216;6.778;2022-11-04T08:03:09;10.60;;;3.50;;
13753;SDS011;6948;51.216;6.778;2022-11-04T08:05:35;8.77;;;3.30;;
13753;SDS011;6948;51.216;6.778;2022-11-04T08:08:01;9.07;;;3.27;;
13753;SDS011;6948;51.216;6.778;2022-11-04T08:10:27;7.33;;;3.00;;
13753;SDS011;6948;51.216;6.778;2022-11-04T08:12:53;6.87;;;2.70;;
13753;SDS011;6948;51.216;6.778;2022-11-04T08:15:19;7.97;;;3.17;;
13753;SDS011;6948;51.216;6.778;2022-11-04T08:17:45;9.50;;;3.10;;
13753;SDS011;6948;51.216;6.778;2022-11-04T08:20:11;9.90;;;3.37;;
13753;SDS011;6948;51.216;6.778;2022-11-04T08:22:38;9.53;;;3.23;;
13753;SDS011;6948;51.216;6.778;2022-11-04T08:25:04;7.60;;;3.20;;
13753;SDS011;6948;51.216;6.778;2022-11-04T08:27:30;9.60;;;3.70;;
13753;SDS011;6948;51.216;6.778;2022-11-04T08:29:56;7.13;;;3.40;;
13753;SDS011;6948;51.216;6.778;2022-11-04T08:32:22;5.43;;;3.03;;
13753;SDS011;6948;51.216;6.778;2022-11-04T08:34:48;7.27;;;3.17;;
13753;SDS011;6948;51.216;6.778;2022-11-04T08:37:15;12.13;;;3.20;;
13753;SDS011;6948;51.216;6.778;2022-11-04T08:39:44;11.67;;;3.47;;
13753;SDS011;6948;51.216;6.778;2022-11-04T08:42:10;9.17;;;3.57;;
13753;SDS011;6948;51.216;6.778;2022-11-04T08:44:36;11.13;;;4.30;;
13753;SDS011;6948;51.216;6.778;2022-11-04T08:47:04;12.43;;;4.00;;
13753;SDS011;6948;51.216;6.778;2022-11-04T08:49:30;8.87;;;3.77;;
13753;SDS011;6948;51.216;6.778;2022-11-04T08:51:56;8.83;;;3.80;;
13753;SDS011;6948;51.216;6.778;2022-11-04T08:54:25;7.87;;;3.77;;
13753;SDS011;6948;51.216;6.778;2022-11-04T08:56:52;6.93;;;3.70;;
13753;SDS011;6948;51.216;6.778;2022-11-04T08:59:18;9.57;;;4.33;;
13753;SDS011;6948;51.216;6.778;2022-11-04T09:01:44;8.33;;;3.70;;
13753;SDS011;6948;51.216;6.778;2022-11-04T09:04:11;6.53;;;3.10;;
13753;SDS011;6948;51.216;6.778;2022-11-04T09:06:38;12.07;;;4.00;;
13753;SDS011;6948;51.216;6.778;2022-11-04T09:09:06;10.20;;;3.97;;
13753;SDS011;6948;51.216;6.778;2022-11-04T09:11:33;9.03;;;3.83;;
13753;SDS011;6948;51.216;6.778;2022-11-04T09:14:01;11.80;;;4.03;;
13753;SDS011;6948;51.216;6.778;2022-11-04T09:16:29;11.03;;;4.13;;
13753;SDS011;6948;51.216;6.778;2022-11-04T09:18:55;9.73;;;3.63;;
13753;SDS011;6948;51.216;6.778;2022-11-04T09:21:22;11.40;;;3.90;;
13753;SDS011;6948;51.216;6.778;2022-11-04T09:23:48;8.00;;;3.67;;
13753;SDS011;6948;51.216;6.778;2022-11-04T09:26:15;9.33;;;3.73;;
13753;SDS011;6948;51.216;6.778;2022-11-04T09:28:41;7.73;;;3.80;;
13753;SDS011;6948;51.216;6.778;2022-11-04T09:31:09;9.60;;;4.37;;
13753;SDS011;6948;51.216;6.778;2022-11-04T09:33:35;11.63;;;4.20;;
13753;SDS011;6948;51.216;6.778;2022-11-04T09:36:02;9.00;;;3.73;;
13753;SDS011;6948;51.216;6.778;2022-11-04T09:38:28;10.23;;;3.80;;
13753;SDS011;6948;51.216;6.778;2022-11-04T09:40:54;9.47;;;3.53;;
13753;SDS011;6948;51.216;6.778;2022-11-04T09:43:39;9.90;;;4.20;;
13753;SDS011;6948;51.216;6.778;2022-11-04T09:46:07;6.13;;;3.40;;
13753;SDS011;6948;51.216;6.778;2022-11-04T09:48:38;8.20;;;3.70;;
13753;SDS011;6948;51.216;6.778;2022-11-04T09:51:06;8.63;;;3.43;;
13753;SDS011;6948;51.216;6.778;2022-11-04T09:53:41;9.63;;;4.27;;
13753;SDS011;6948;51.216;6.778;2022-11-04T09:56:17;11.07;;;4.33;;
13753;SDS011;6948;51.216;6.778;2022-11-04T09:58:45;6.10;;;3.50;;
13753;SDS011;6948;51.216;6.778;2022-11-04T10:01:15;12.13;;;4.37;;
13753;SDS011;6948;51.216;6.778;2022-11-04T10:06:43;10.70;;;3.33;;
13753;SDS011;6948;51.216;6.778;2022-11-04T10:09:31;9.60;;;3.23;;
13753;SDS011;6948;51.216;6.778;2022-11-04T10:12:12;8.20;;;3.17;;
13753;SDS011;6948;51.216;6.778;2022-11-04T10:14:55;9.17;;;3.43;;
13753;SDS011;6948;51.216;6.778;2022-11-04T10:17:37;7.53;;;3.23;;
13753;SDS011;6948;51.216;6.778;2022-11-04T10:22:54;9.13;;;3.40;;
13753;SDS011;6948;51.216;6.778;2022-11-04T10:25:23;9.40;;;3.40;;
13753;SDS011;6948;51.216;6.778;2022-11-04T10:27:50;10.03;;;3.33;;
13753;SDS011;6948;51.216;6.778;2022-11-04T10:30:18;9.13;;;3.30;;
13753;SDS011;6948;51.216;6.778;2022-11-04T10:32:48;9.37;;;3.20;;
13753;SDS011;6948;51.216;6.778;2022-11-04T10:37:54;7.57;;;3.97;;
13753;SDS011;6948;51.216;6.778;2022-11-04T10:40:23;10.03;;;3.60;;
13753;SDS011;6948;51.216;6.778;2022-11-04T10:42:49;9.20;;;3.33;;
13753;SDS011;6948;51.216;6.778;2022-11-04T10:45:16;8.77;;;4.40;;
13753;SDS011;6948;51.216;6.778;2022-11-04T10:47:49;13.57;;;9.70;;
13753;SDS011;6948;51.216;6.778;2022-11-04T10:52:54;9.37;;;3.43;;
13753;SDS011;6948;51.216;6.778;2022-11-04T10:55:30;7.80;;;3.60;;
13753;SDS011;6948;51.216;6.778;2022-11-04T10:57:58;7.67;;;3.17;;
13753;SDS011;6948;51.216;6.778;2022-11-04T11:00:33;12.13;;;3.40;;
13753;SDS011;6948;51.216;6.778;2022-11-04T11:02:59;8.20;;;3.20;;
13753;SDS011;6948;51.216;6.778;2022-11-04T11:05:25;7.10;;;3.10;;
13753;SDS011;6948;51.216;6.778;2022-11-04T11:07:54;8.23;;;3.23;;
13753;SDS011;6948;51.216;6.778;2022-11-04T11:10:22;7.77;;;3.07;;
13753;SDS011;6948;51.216;6.778;2022-11-04T11:13:05;11.03;;;3.17;;
13753;SDS011;6948;51.216;6.778;2022-11-04T11:15:33;8.77;;;2.70;;
13753;SDS011;6948;51.216;6.778;2022-11-04T11:20:37;9.93;;;3.10;;
13753;SDS011;6948;51.216;6.778;2022-11-04T11:23:05;7.70;;;2.60;;
13753;SDS011;6948;51.216;6.778;2022-11-04T11:25:50;7.83;;;3.00;;
13753;SDS011;6948;51.216;6.778;2022-11-04T11:28:21;9.37;;;2.97;;
13753;SDS011;6948;51.216;6.778;2022-11-04T11:33:28;10.73;;;3.03;;
13753;SDS011;6948;51.216;6.778;2022-11-04T11:41:28;7.17;;;2.40;;
13753;SDS011;6948;51.216;6.778;2022-11-04T11:43:57;6.13;;;2.70;;
13753;SDS011;6948;51.216;6.778;2022-11-04T11:46:24;6.90;;;2.43;;
13753;SDS011;6948;51.216;6.778;2022-11-04T11:48:52;6.93;;;2.77;;
13753;SDS011;6948;51.216;6.778;2022-11-04T11:51:23;10.33;;;2.90;;
13753;SDS011;6948;51.216;6.778;2022-11-04T11:56:35;7.87;;;2.63;;
13753;SDS011;6948;51.216;6.778;2022-11-04T11:59:12;10.27;;;3.00;;
13753;SDS011;6948;51.216;6.778;2022-11-04T12:04:18;8.20;;;3.00;;
13753;SDS011;6948;51.216;6.778;2022-11-04T12:06:47;8.37;;;2.90;;
13753;SDS011;6948;51.216;6.778;2022-11-04T12:12:07;8.50;;;3.10;;
13753;SDS011;6948;51.216;6.778;2022-11-04T12:14:48;7.13;;;3.00;;
13753;SDS011;6948;51.216;6.778;2022-11-04T12:17:23;11.60;;;3.50;;
13753;SDS011;6948;51.216;6.778;2022-11-04T12:20:02;7.27;;;3.10;;
13753;SDS011;6948;51.216;6.778;2022-11-04T12:22:36;8.93;;;2.97;;
13753;SDS011;6948;51.216;6.778;2022-11-04T12:30:39;6.90;;;2.40;;
13753;SDS011;6948;51.216;6.778;2022-11-04T12:33:14;10.13;;;2.60;;
13753;SDS011;6948;51.216;6.778;2022-11-04T12:35:48;7.33;;;2.63;;
13753;SDS011;6948;51.216;6.778;2022-11-04T12:38:29;9.33;;;3.33;;
13753;SDS011;6948;51.216;6.778;2022-11-04T12:44:01;14.10;;;3.80;;
13753;SDS011;6948;51.216;6.778;2022-11-04T12:46:47;11.07;;;3.50;;
13753;SDS011;6948;51.216;6.778;2022-11-04T12:52:04;10.37;;;3.97;;
13753;SDS011;6948;51.216;6.778;2022-11-04T13:02:39;8.47;;;2.97;;
13753;SDS011;6948;51.216;6.778;2022-11-04T13:05:14;7.13;;;2.53;;
13753;SDS011;6948;51.216;6.778;2022-11-04T13:08:02;7.33;;;2.60;;
13753;SDS011;6948;51.216;6.778;2022-11-04T13:13:05;5.83;;;2.53;;
13753;SDS011;6948;51.216;6.778;2022-11-04T13:15:37;7.73;;;2.50;;
13753;SDS011;6948;51.216;6.778;2022-11-04T13:18:05;7.43;;;2.67;;
13753;SDS011;6948;51.216;6.778;2022-11-04T13:20:34;7.73;;;2.73;;
13753;SDS011;6948;51.216;6.778;2022-11-04T13:23:04;8.00;;;2.80;;
13753;SDS011;6948;51.216;6.778;2022-11-04T13:25:36;9.60;;;3.23;;
13753;SDS011;6948;51.216;6.778;2022-11-04T13:28:05;18.37;;;4.87;;
13753;SDS011;6948;51.216;6.778;2022-11-04T13:30:39;9.70;;;3.40;;
13753;SDS011;6948;51.216;6.778;2022-11-04T13:33:12;9.97;;;3.27;;
13753;SDS011;6948;51.216;6.778;2022-11-04T13:35:45;9.63;;;3.63;;
13753;SDS011;6948;51.216;6.778;2022-11-04T13:38:14;5.23;;;2.73;;
13753;SDS011;6948;51.216;6.778;2022-11-04T13:43:32;11.07;;;3.17;;
13753;SDS011;6948;51.216;6.778;2022-11-04T13:46:02;11.27;;;3.37;;
13753;SDS011;6948;51.216;6.778;2022-11-04T13:48:29;15.67;;;3.53;;
13753;SDS011;6948;51.216;6.778;2022-11-04T13:51:05;10.63;;;2.83;;
13753;SDS011;6948;51.216;6.778;2022-11-04T13:59:05;8.53;;;3.27;;
13753;SDS011;6948;51.216;6.778;2022-11-04T14:01:33;11.70;;;3.40;;
13753;SDS011;6948;51.216;6.778;2022-11-04T14:06:55;14.67;;;3.60;;
13753;SDS011;6948;51.216;6.778;2022-11-04T14:09:23;10.57;;;3.27;;
13753;SDS011;6948;51.216;6.778;2022-11-04T14:14:37;10.03;;;3.53;;
13753;SDS011;6948;51.216;6.778;2022-11-04T14:17:03;9.73;;;3.33;;
13753;SDS011;6948;51.216;6.778;2022-11-04T14:22:20;8.63;;;3.30;;
13753;SDS011;6948;51.216;6.778;2022-11-04T14:24:53;10.60;;;3.07;;
13753;SDS011;6948;51.216;6.778;2022-11-04T14:27:21;9.97;;;3.37;;
13753;SDS011;6948;51.216;6.778;2022-11-04T14:29:49;10.13;;;3.90;;
13753;SDS011;6948;51.216;6.778;2022-11-04T14:32:17;10.77;;;3.30;;
13753;SDS011;6948;51.216;6.778;2022-11-04T14:34:46;7.53;;;3.03;;
13753;SDS011;6948;51.216;6.778;2022-11-04T14:39:56;10.03;;;3.10;;
13753;SDS011;6948;51.216;6.778;2022-11-04T14:45:11;9.00;;;3.10;;
13753;SDS011;6948;51.216;6.778;2022-11-04T14:47:40;11.57;;;3.40;;
13753;SDS011;6948;51.216;6.778;2022-11-04T14:50:13;9.33;;;3.20;;
13753;SDS011;6948;51.216;6.778;2022-11-04T14:55:19;10.93;;;3.30;;
13753;SDS011;6948;51.216;6.778;2022-11-04T14:57:47;6.83;;;3.10;;
13753;SDS011;6948;51.216;6.778;2022-11-04T15:05:47;12.40;;;3.73;;
13753;SDS011;6948;51.216;6.778;2022-11-04T15:13:47;10.20;;;2.97;;
13753;SDS011;6948;51.216;6.778;2022-11-04T15:16:16;9.03;;;3.20;;
13753;SDS011;6948;51.216;6.778;2022-11-04T15:18:44;8.73;;;2.67;;
13753;SDS011;6948;51.216;6.778;2022-11-04T15:21:10;9.20;;;3.60;;
13753;SDS011;6948;51.216;6.778;2022-11-04T15:23:45;10.27;;;3.20;;
13753;SDS011;6948;51.216;6.778;2022-11-04T15:26:28;8.23;;;3.27;;
13753;SDS011;6948;51.216;6.778;2022-11-04T15:28:56;8.40;;;3.00;;
13753;SDS011;6948;51.216;6.778;2022-11-04T15:31:24;12.30;;;3.20;;
13753;SDS011;6948;51.216;6.778;2022-11-04T15:33:52;12.60;;;3.40;;
13753;SDS011;6948;51.216;6.778;2022-11-04T15:36:19;10.33;;;2.90;;
13753;SDS011;6948;51.216;6.778;2022-11-04T15:38:48;8.90;;;3.10;;
13753;SDS011;6948;51.216;6.778;2022-11-04T15:41:17;11.10;;;3.50;;
13753;SDS011;6948;51.216;6.778;2022-11-04T15:44:05;8.80;;;2.73;;
13753;SDS011;6948;51.216;6.778;2022-11-04T15:46:31;8.67;;;3.10;;
13753;SDS011;6948;51.216;6.778;2022-11-04T15:49:02;9.07;;;3.70;;
13753;SDS011;6948;51.216;6.778;2022-11-04T15:51:29;10.80;;;3.10;;
13753;SDS011;6948;51.216;6.778;2022-11-04T15:54:00;8.40;;;3.50;;
13753;SDS011;6948;51.216;6.778;2022-11-04T15:56:28;8.03;;;3.10;;
13753;SDS011;6948;51.216;6.778;2022-11-04T15:58:55;10.47;;;3.10;;
13753;SDS011;6948;51.216;6.778;2022-11-04T16:01:22;11.37;;;3.20;;
13753;SDS011;6948;51.216;6.778;2022-11-04T16:03:49;12.17;;;3.50;;
13753;SDS011;6948;51.216;6.778;2022-11-04T16:06:15;8.50;;;3.00;;
13753;SDS011;6948;51.216;6.778;2022-11-04T16:08:41;10.23;;;3.27;;
13753;SDS011;6948;51.216;6.778;2022-11-04T16:11:16;9.37;;;3.17;;
13753;SDS011;6948;51.216;6.778;2022-11-04T16:13:43;8.03;;;3.00;;
13753;SDS011;6948;51.216;6.778;2022-11-04T16:16:19;10.10;;;3.50;;
13753;SDS011;6948;51.216;6.778;2022-11-04T16:18:48;8.00;;;3.40;;
13753;SDS011;6948;51.216;6.778;2022-11-04T16:21:20;13.50;;;3.63;;
13753;SDS011;6948;51.216;6.778;2022-11-04T16:23:49;10.27;;;3.00;;
13753;SDS011;6948;51.216;6.778;2022-11-04T16:26:16;9.57;;;3.53;;
13753;SDS011;6948;51.216;6.778;2022-11-04T16:28:51;9.60;;;3.10;;
13753;SDS011;6948;51.216;6.778;2022-11-04T16:33:57;10.30;;;3.83;;
13753;SDS011;6948;51.216;6.778;2022-11-04T16:36:23;9.97;;;3.77;;
13753;SDS011;6948;51.216;6.778;2022-11-04T16:38:58;11.40;;;3.30;;
13753;SDS011;6948;51.216;6.778;2022-11-04T16:41:27;8.90;;;3.40;;
13753;SDS011;6948;51.216;6.778;2022-11-04T16:43:53;11.27;;;3.70;;
13753;SDS011;6948;51.216;6.778;2022-11-04T16:46:20;12.67;;;4.23;;
13753;SDS011;6948;51.216;6.778;2022-11-04T16:48:47;11.30;;;4.20;;
13753;SDS011;6948;51.216;6.778;2022-11-04T16:51:15;11.17;;;4.07;;
13753;SDS011;6948;51.216;6.778;2022-11-04T16:53:42;8.80;;;4.10;;
13753;SDS011;6948;51.216;6.778;2022-11-04T16:56:08;10.20;;;3.70;;
13753;SDS011;6948;51.216;6.778;2022-11-04T16:58:34;13.00;;;4.33;;
13753;SDS011;6948;51.216;6.778;2022-11-04T17:01:00;11.20;;;4.90;;
13753;SDS011;6948;51.216;6.778;2022-11-04T17:03:26;11.80;;;4.77;;
13753;SDS011;6948;51.216;6.778;2022-11-04T17:05:54;12.63;;;4.77;;
13753;SDS011;6948;51.216;6.778;2022-11-04T17:08:20;14.50;;;5.40;;
13753;SDS011;6948;51.216;6.778;2022-11-04T17:10:46;12.10;;;5.73;;
13753;SDS011;6948;51.216;6.778;2022-11-04T17:13:13;10.63;;;5.43;;